Time;durP1;ratioP1;P1;durP2;ratioP2;P2;SDS_P1;SDS_P2;PMS_P1;PMS_P2;Temp;Humidity;BMP_temperature;BMP_pressure;BME280_temperature;BME280_humidity;BME280_pressure;Samples;Min_cycle;Max_cycle;Signal;HPM_P1;HPM_P2
2021/01/13 00:01:29;;;;;;;39.25;15.20;;;;;;;-7.75;55.53;100147.91;5074405;28;20020;-51
2021/01/13 00:03:54;;;;;;;28.10;9.15;;;;;;;-7.01;55.73;100273.59;5080495;28;20463;-48
2021/01/13 00:06:20;;;;;;;34.22;14.20;;;;;;;-7.11;55.79;100276.22;5083024;28;20036;-52
2021/01/13 00:08:45;;;;;;;27.02;9.70;;;;;;;-7.13;55.59;100280.56;5073524;28;20036;-50
2021/01/13 00:11:13;;;;;;;35.08;13.07;;;;;;;-7.31;55.78;100270.16;5086196;28;20025;-49
2021/01/13 00:13:38;;;;;;;31.95;13.00;;;;;;;-7.32;55.94;100273.63;5077133;28;20066;-51
2021/01/13 00:16:04;;;;;;;33.78;13.45;;;;;;;-7.35;56.21;100267.56;5079865;28;20055;-49
2021/01/13 00:18:29;;;;;;;31.35;12.95;;;;;;;-7.39;56.67;100270.13;5084368;28;20032;-53
2021/01/13 00:20:55;;;;;;;31.60;13.40;;;;;;;-7.62;56.38;100213.78;5072959;28;20091;-51
2021/01/13 00:23:20;;;;;;;36.53;12.80;;;;;;;-7.43;57.04;100240.69;5085586;28;20029;-53
2021/01/13 00:25:46;;;;;;;33.63;13.80;;;;;;;-7.30;56.65;100251.06;5078202;28;20066;-51
2021/01/13 00:28:11;;;;;;;40.38;14.32;;;;;;;-7.37;56.57;100222.47;5078323;28;20153;-51
2021/01/13 00:30:36;;;;;;;32.20;13.48;;;;;;;-7.19;56.46;100264.94;5084737;28;20085;-54
2021/01/13 00:33:02;;;;;;;32.03;13.68;;;;;;;-7.28;57.03;100249.31;5073053;28;20119;-49
2021/01/13 00:35:27;;;;;;;33.65;14.18;;;;;;;-7.36;56.94;100225.91;5084711;28;20093;-53
2021/01/13 00:37:53;;;;;;;36.10;14.48;;;;;;;-7.29;56.51;100227.66;5078811;28;20072;-52
2021/01/13 00:40:19;;;;;;;29.58;13.52;;;;;;;-7.26;56.72;100235.47;5076779;28;20091;-51
2021/01/13 00:42:49;;;;;;;31.45;12.02;;;;;;;-7.26;56.60;100244.97;5065255;28;20044;-54
2021/01/13 00:45:16;;;;;;;26.77;10.43;;;;;;;-7.49;56.90;100238.06;5065996;28;20039;-51
2021/01/13 00:47:42;;;;;;;35.50;13.88;;;;;;;-7.62;57.63;100239.78;5080117;28;20060;-49
2021/01/13 00:50:12;;;;;;;31.23;13.40;;;;;;;-7.64;57.56;100268.41;5071667;28;20032;-53
2021/01/13 00:52:38;;;;;;;30.92;13.82;;;;;;;-7.60;57.63;100265.81;5074108;28;20090;-51
2021/01/13 00:55:04;;;;;;;30.48;14.35;;;;;;;-7.51;57.55;100271.88;5086392;28;20028;-52
2021/01/13 00:57:30;;;;;;;28.80;11.68;;;;;;;-7.53;57.03;100246.72;5075585;28;20029;-50
2021/01/13 00:59:55;;;;;;;30.45;13.40;;;;;;;-7.44;57.11;100280.56;5079776;28;20393;-50
2021/01/13 01:02:21;;;;;;;30.10;13.38;;;;;;;-7.55;57.17;100257.16;5082223;28;20533;-52
2021/01/13 01:04:47;;;;;;;34.28;13.20;;;;;;;-7.52;57.55;100277.94;5073297;28;20047;-50
2021/01/13 01:07:12;;;;;;;34.20;13.32;;;;;;;-8.12;57.49;100171.31;5056458;28;20395;-53
2021/01/13 01:09:38;;;;;;;42.67;14.93;;;;;;;-7.67;57.79;100280.53;5087907;28;20036;-52
2021/01/13 01:12:03;;;;;;;35.25;13.63;;;;;;;-7.69;57.59;100254.53;5081459;28;20060;-49
2021/01/13 01:14:29;;;;;;;29.65;11.65;;;;;;;-7.66;57.21;100251.94;5087275;28;20032;-50
2021/01/13 01:16:54;;;;;;;34.28;13.32;;;;;;;-7.81;57.68;100249.31;5075433;28;20186;-48
2021/01/13 01:19:21;;;;;;;32.50;13.40;;;;;;;-7.89;57.67;100233.69;5088387;28;20472;-51
2021/01/13 01:21:46;;;;;;;28.92;12.00;;;;;;;-8.22;57.87;100173.88;5081430;28;20483;-50
2021/01/13 01:24:12;;;;;;;26.35;10.98;;;;;;;-7.61;57.43;100264.06;5081727;28;20098;-53
2021/01/13 01:26:45;;;;;;;38.40;13.88;;;;;;;-7.64;57.68;100252.81;5087974;28;20123;-54
2021/01/13 01:29:10;;;;;;;36.83;14.65;;;;;;;-7.62;57.30;100260.59;5076338;28;20028;-53
2021/01/13 01:31:36;;;;;;;33.20;13.00;;;;;;;-7.47;57.40;100261.47;5085007;28;20044;-53
2021/01/13 01:34:01;;;;;;;29.65;10.52;;;;;;;-7.37;57.36;100258.88;5082882;28;20054;-50
2021/01/13 01:36:27;;;;;;;33.85;14.27;;;;;;;-7.35;57.01;100257.16;5078781;28;20090;-51
2021/01/13 01:38:52;;;;;;;32.28;12.93;;;;;;;-7.33;56.87;100258.88;5089419;28;20078;-52
2021/01/13 01:41:18;;;;;;;34.85;13.45;;;;;;;-7.38;56.69;100235.44;5077017;28;20039;-50
2021/01/13 01:43:45;;;;;;;31.52;13.80;;;;;;;-7.35;56.75;100253.69;5085584;28;20115;-51
2021/01/13 01:46:11;;;;;;;34.58;14.05;;;;;;;-7.47;57.34;100217.25;5084705;28;20058;-50
2021/01/13 01:48:58;;;;;;;33.53;13.70;;;;;;;-7.34;57.25;100232.00;5077375;28;20101;-50
2021/01/13 01:51:26;;;;;;;37.65;14.30;;;;;;;-7.29;56.52;100224.19;5062320;28;20031;-47
2021/01/13 01:54:12;;;;;;;37.42;15.27;;;;;;;-7.35;56.37;100251.94;5084131;28;20090;-53
2021/01/13 01:56:40;;;;;;;34.80;12.60;;;;;;;-7.43;56.29;100245.88;5087734;28;20063;-51
2021/01/13 01:59:15;;;;;;;36.45;13.88;;;;;;;-7.51;57.24;100239.78;5075385;28;20033;-50
2021/01/13 02:01:48;;;;;;;29.90;12.68;;;;;;;-7.54;57.18;100240.69;5085858;28;20549;-49
2021/01/13 02:04:20;;;;;;;28.40;9.25;;;;;;;-7.48;57.21;100229.38;5084903;28;20039;-54
2021/01/13 02:06:51;;;;;;;29.85;12.40;;;;;;;-7.49;56.97;100222.44;5076143;28;20044;-51
2021/01/13 02:09:17;;;;;;;32.28;12.55;;;;;;;-7.53;56.55;100225.91;5061701;28;20032;-51
2021/01/13 02:11:51;;;;;;;26.33;11.07;;;;;;;-7.71;56.61;100193.88;5085389;28;20046;-48
2021/01/13 02:14:16;;;;;;;35.93;14.47;;;;;;;-7.58;56.82;100222.47;5083469;28;20123;-53
2021/01/13 02:16:49;;;;;;;29.15;13.43;;;;;;;-7.80;56.87;100201.66;5076277;28;20672;-50
2021/01/13 02:19:48;;;;;;;34.35;12.50;;;;;;;-7.55;56.90;100231.16;5058849;28;20066;-51
2021/01/13 02:22:19;;;;;;;31.00;13.48;;;;;;;-8.31;56.67;100110.69;5080501;28;20041;-52
2021/01/13 02:25:11;;;;;;;31.58;12.38;;;;;;;-7.60;56.88;100226.78;5088553;28;20032;-48
2021/01/13 02:28:03;;;;;;;34.65;14.00;;;;;;;-7.57;56.87;100219.00;5064934;28;20032;-54
2021/01/13 02:30:37;;;;;;;32.67;13.00;;;;;;;-7.58;56.34;100204.25;5078491;28;20115;-50
2021/01/13 02:33:09;;;;;;;32.85;13.15;;;;;;;-7.68;56.17;100201.66;5089087;28;20063;-47
2021/01/13 02:36:06;;;;;;;36.05;13.95;;;;;;;-7.71;56.73;100213.78;5078144;28;20080;-49
2021/01/13 02:38:34;;;;;;;31.38;10.45;;;;;;;-7.67;56.50;100220.72;5077000;28;20052;-50
2021/01/13 02:40:59;;;;;;;28.85;11.90;;;;;;;-7.73;56.47;100216.38;5088728;28;20135;-48
2021/01/13 02:43:29;;;;;;;35.03;13.80;;;;;;;-7.86;57.27;100210.31;5076910;28;20107;-50
2021/01/13 02:45:59;;;;;;;31.45;12.63;;;;;;;-7.82;57.07;100221.59;5082140;28;20071;-49
2021/01/13 02:48:24;;;;;;;31.20;12.23;;;;;;;-7.75;57.00;100225.06;5085153;28;20058;-49
2021/01/13 02:50:56;;;;;;;29.40;10.70;;;;;;;-7.84;56.73;100181.72;5075075;28;20052;-51
2021/01/13 02:53:21;;;;;;;27.75;11.40;;;;;;;-7.72;56.90;100206.84;5087006;28;20075;-53
2021/01/13 02:55:46;;;;;;;29.38;11.02;;;;;;;-7.69;56.83;100210.34;5079261;28;20035;-49
2021/01/13 02:58:18;;;;;;;32.92;13.77;;;;;;;-7.71;56.67;100219.88;5079536;28;20059;-49
2021/01/13 03:00:43;;;;;;;30.98;11.63;;;;;;;-7.72;56.68;100222.47;5087863;28;20422;-53
2021/01/13 03:03:10;;;;;;;28.58;11.93;;;;;;;-7.74;56.68;100225.03;5074368;28;20024;-51
2021/01/13 03:05:36;;;;;;;24.52;9.60;;;;;;;-7.86;56.18;100180.84;5084345;28;20067;-49
2021/01/13 03:08:06;;;;;;;39.50;13.57;;;;;;;-7.82;56.83;100211.19;5081108;28;20028;-50
2021/01/13 03:10:37;;;;;;;24.70;8.98;;;;;;;-7.78;56.51;100224.19;5089944;28;20032;-51
2021/01/13 03:13:05;;;;;;;27.58;12.02;;;;;;;-7.81;56.57;100197.31;5074446;28;20060;-50
2021/01/13 03:15:33;;;;;;;40.42;14.63;;;;;;;-7.99;56.66;100193.81;5084689;28;20039;-48
2021/01/13 03:18:14;;;;;;;25.77;9.20;;;;;;;-7.83;56.58;100210.34;5080096;28;20035;-53
2021/01/13 03:21:05;;;;;;;32.53;13.70;;;;;;;-8.14;56.39;100178.22;5075364;28;20058;-49
2021/01/13 03:24:04;;;;;;;34.80;13.45;;;;;;;-7.98;56.77;100200.75;5062480;28;20054;-48
2021/01/13 03:26:38;;;;;;;33.88;12.93;;;;;;;-7.97;57.11;100207.69;5076713;28;20085;-48
2021/01/13 03:29:04;;;;;;;34.97;12.65;;;;;;;-7.87;56.64;100216.38;5087317;28;20115;-50
2021/01/13 03:31:34;;;;;;;27.23;10.40;;;;;;;-7.72;56.18;100204.25;5076410;28;20494;-47
2021/01/13 03:34:31;;;;;;;32.22;13.43;;;;;;;-7.83;56.24;100205.13;5079641;28;20043;-48
2021/01/13 03:37:15;;;;;;;32.40;13.68;;;;;;;-7.84;56.52;100198.16;5086754;28;20044;-51
2021/01/13 03:39:41;;;;;;;28.92;13.43;;;;;;;-7.74;56.11;100225.03;5078168;28;20070;-51
2021/01/13 03:42:08;;;;;;;30.38;12.02;;;;;;;-7.70;56.38;100220.72;5079725;28;20041;-48
2021/01/13 03:44:36;;;;;;;35.20;13.43;;;;;;;-7.72;55.73;100218.09;5084972;28;20479;-53
2021/01/13 03:47:27;;;;;;;34.72;13.63;;;;;;;-7.76;55.80;100224.19;5073879;28;20035;-52
2021/01/13 03:50:11;;;;;;;32.95;11.68;;;;;;;-7.82;55.68;100221.59;5081030;28;20508;-51
2021/01/13 03:52:55;;;;;;;36.72;12.32;;;;;;;-8.02;55.83;100204.22;5085218;28;20068;-49
2021/01/13 03:55:25;;;;;;;31.15;13.25;;;;;;;-7.87;56.05;100251.91;5059332;28;20054;-49
2021/01/13 03:57:57;;;;;;;33.28;13.10;;;;;;;-7.86;55.86;100238.03;5068932;28;20055;-48
2021/01/13 04:00:39;;;;;;;28.25;11.35;;;;;;;-7.86;55.38;100220.69;5077086;28;20063;-50
2021/01/13 04:03:22;;;;;;;28.13;10.45;;;;;;;-7.89;55.30;100225.03;5086532;28;20032;-50
2021/01/13 04:06:12;;;;;;;33.67;12.95;;;;;;;-8.01;55.72;100224.16;5079216;28;20476;-50
2021/01/13 04:08:46;;;;;;;29.20;11.10;;;;;;;-8.00;55.41;100228.47;5074989;28;20036;-49
2021/01/13 04:11:14;;;;;;;30.15;11.25;;;;;;;-8.17;55.49;100225.84;5086551;28;20040;-50
2021/01/13 04:13:44;;;;;;;30.42;11.77;;;;;;;-8.19;55.43;100214.59;5076927;28;20739;-51
2021/01/13 04:16:13;;;;;;;32.28;12.10;;;;;;;-8.25;55.72;100233.63;5078686;28;20930;-53
2021/01/13 04:18:39;;;;;;;26.08;10.70;;;;;;;-8.22;55.76;100228.41;5085496;28;20028;-47
2021/01/13 04:21:06;;;;;;;33.05;12.95;;;;;;;-8.32;56.22;100234.47;5073051;28;20033;-53
2021/01/13 04:23:32;;;;;;;35.90;14.43;;;;;;;-8.28;55.92;100235.34;5083539;28;20029;-51
2021/01/13 04:25:59;;;;;;;31.40;12.32;;;;;;;-8.36;55.97;100219.75;5079421;28;20040;-52
2021/01/13 04:28:25;;;;;;;36.25;14.15;;;;;;;-8.25;56.43;100230.16;5076520;28;20029;-55
2021/01/13 04:30:52;;;;;;;31.25;10.85;;;;;;;-8.11;56.06;100240.59;5085527;28;20085;-49
2021/01/13 04:33:18;;;;;;;24.67;5.43;;;;;;;-8.06;56.27;100246.66;5073250;28;20047;-48
2021/01/13 04:35:43;;;;;;;32.33;12.25;;;;;;;-8.10;55.85;100234.53;5081791;28;20028;-48
2021/01/13 04:38:10;;;;;;;29.55;10.63;;;;;;;-8.10;56.29;100235.38;5081143;28;20161;-54
2021/01/13 04:40:39;;;;;;;27.02;10.82;;;;;;;-8.10;56.02;100234.53;5074481;28;20056;-50
2021/01/13 04:43:10;;;;;;;34.72;13.70;;;;;;;-8.09;56.51;100224.13;5085911;28;20048;-52
2021/01/13 04:45:39;;;;;;;25.83;9.98;;;;;;;-8.09;56.34;100239.72;5063078;28;20032;-54
2021/01/13 04:48:07;;;;;;;28.92;10.10;;;;;;;-8.03;56.06;100230.22;5079334;28;20448;-54
2021/01/13 04:50:36;;;;;;;30.17;12.20;;;;;;;-8.09;56.58;100224.13;5055692;28;20120;-51
2021/01/13 04:53:13;;;;;;;27.65;8.88;;;;;;;-8.05;56.38;100230.19;5078581;28;20455;-54
2021/01/13 04:55:56;;;;;;;35.15;13.48;;;;;;;-8.14;56.79;100235.41;5083266;28;20031;-55
2021/01/13 04:58:24;;;;;;;37.47;11.35;;;;;;;-8.07;56.65;100221.53;5075160;28;20112;-50
2021/01/13 05:01:11;;;;;;;33.45;13.00;;;;;;;-8.03;56.53;100215.47;5072895;28;20036;-50
2021/01/13 05:03:39;;;;;;;28.15;9.75;;;;;;;-7.95;56.37;100212.91;5082436;28;20040;-49
2021/01/13 05:06:42;;;;;;;32.53;10.63;;;;;;;-7.97;56.09;100219.84;5079989;28;20483;-50
2021/01/13 05:09:09;;;;;;;24.38;8.82;;;;;;;-8.08;56.43;100215.50;5072534;28;20085;-49
2021/01/13 05:11:45;;;;;;;34.25;13.55;;;;;;;-8.17;56.53;100231.03;5082366;28;20048;-51
2021/01/13 05:14:17;;;;;;;31.38;12.00;;;;;;;-8.08;56.73;100235.41;5080894;28;20044;-50
2021/01/13 05:16:49;;;;;;;28.95;11.75;;;;;;;-7.94;56.56;100238.91;5071684;28;20490;-49
2021/01/13 05:19:29;;;;;;;27.38;10.73;;;;;;;-7.90;56.29;100216.38;5056142;28;20024;-52
2021/01/13 05:21:56;;;;;;;34.25;12.60;;;;;;;-7.98;55.88;100228.50;5079924;28;20151;-50
2021/01/13 05:24:23;;;;;;;36.15;14.35;;;;;;;-8.18;56.33;100224.13;5081985;28;20509;-54
2021/01/13 05:26:59;;;;;;;31.60;12.65;;;;;;;-8.15;56.23;100216.31;5072720;28;20086;-47
2021/01/13 05:29:36;;;;;;;37.33;13.45;;;;;;;-8.16;56.72;100242.31;5071135;28;20024;-48
2021/01/13 05:32:05;;;;;;;35.25;13.63;;;;;;;-8.92;56.40;100115.75;5069337;28;20036;-49
2021/01/13 05:34:34;;;;;;;33.88;13.05;;;;;;;-8.23;56.49;100247.47;5074470;28;20078;-50
2021/01/13 05:37:16;;;;;;;22.05;8.07;;;;;;;-8.10;56.34;100265.72;5085412;28;20076;-54
2021/01/13 05:39:46;;;;;;;33.22;12.73;;;;;;;-8.26;56.40;100249.22;5076440;28;20048;-50
2021/01/13 05:42:14;;;;;;;37.75;14.57;;;;;;;-8.21;56.40;100270.88;5077148;28;20070;-49
2021/01/13 05:44:43;;;;;;;33.67;12.52;;;;;;;-8.21;56.71;100260.47;5084264;28;20115;-51
2021/01/13 05:47:46;;;;;;;35.63;12.65;;;;;;;-8.20;56.48;100246.63;5071893;28;20027;-50
2021/01/13 05:50:16;;;;;;;33.05;14.02;;;;;;;-8.21;56.22;100258.72;5061597;28;20045;-47
2021/01/13 05:52:42;;;;;;;35.42;15.65;;;;;;;-8.29;56.62;100246.59;5085352;28;20035;-50
2021/01/13 05:55:08;;;;;;;33.20;13.13;;;;;;;-8.25;56.41;100259.59;5072134;28;20040;-50
2021/01/13 05:57:35;;;;;;;34.80;13.70;;;;;;;-8.47;56.40;100244.78;5082218;28;20039;-53
2021/01/13 06:00:04;;;;;;;37.40;14.07;;;;;;;-8.54;56.62;100224.03;5082358;28;20446;-49
2021/01/13 06:02:41;;;;;;;32.40;13.77;;;;;;;-8.96;56.72;100160.69;5078420;28;20610;-52
2021/01/13 06:05:06;;;;;;;33.92;12.55;;;;;;;-8.31;56.38;100253.53;5089092;28;20048;-57
2021/01/13 06:07:33;;;;;;;23.33;10.15;;;;;;;-8.25;56.42;100280.38;5077999;28;20035;-57
2021/01/13 06:10:01;;;;;;;32.33;13.10;;;;;;;-8.27;55.87;100282.09;5091194;28;20050;-57
2021/01/13 06:12:30;;;;;;;36.80;14.73;;;;;;;-8.39;56.23;100297.66;5078857;28;20040;-56
2021/01/13 06:14:55;;;;;;;38.53;13.48;;;;;;;-8.37;56.53;100291.59;5088823;28;20038;-54
2021/01/13 06:17:25;;;;;;;32.45;14.00;;;;;;;-8.40;56.75;100295.91;5076427;28;20416;-56
2021/01/13 06:19:54;;;;;;;25.67;9.43;;;;;;;-8.28;56.45;100295.09;5083542;28;20028;-56
2021/01/13 06:22:33;;;;;;;31.77;13.35;;;;;;;-8.30;56.99;100297.69;5085726;28;20114;-58
2021/01/13 06:25:02;;;;;;;26.77;11.13;;;;;;;-8.18;56.46;100304.66;5075396;28;20036;-50
2021/01/13 06:28:06;;;;;;;30.00;13.25;;;;;;;-8.67;56.60;100214.47;5086309;28;20047;-56
2021/01/13 06:30:39;;;;;;;18.23;5.38;;;;;;;-7.84;55.64;100332.50;5086522;28;20027;-58
2021/01/13 06:33:08;;;;;;;32.53;10.45;;;;;;;-7.96;55.44;100316.00;5075831;28;20123;-56
2021/01/13 06:35:42;;;;;;;28.48;12.23;;;;;;;-8.05;56.09;100318.56;5085307;28;20024;-54
2021/01/13 06:38:20;;;;;;;31.95;13.50;;;;;;;-8.05;55.57;100323.75;5083055;28;20052;-52
2021/01/13 06:40:57;;;;;;;26.25;9.85;;;;;;;-8.24;55.65;100289.91;5073422;28;20402;-53
2021/01/13 06:43:23;;;;;;;27.98;11.27;;;;;;;-8.12;55.71;100333.25;5059651;28;20403;-56
2021/01/13 06:45:48;;;;;;;31.92;11.65;;;;;;;-8.13;55.64;100320.28;5081996;28;20040;-54
2021/01/13 06:48:14;;;;;;;33.92;13.00;;;;;;;-8.96;55.88;100194.41;5082209;28;20028;-55
2021/01/13 06:50:41;;;;;;;29.67;10.40;;;;;;;-8.11;56.04;100334.13;5076710;28;20051;-57
2021/01/13 06:53:11;;;;;;;28.67;10.40;;;;;;;-8.07;55.95;100330.69;5088234;28;20392;-56
2021/01/13 06:55:38;;;;;;;27.45;9.63;;;;;;;-8.22;55.74;100321.09;5076774;28;20042;-53
2021/01/13 06:58:17;;;;;;;31.98;13.43;;;;;;;-8.19;56.04;100354.88;5080711;28;20051;-56
2021/01/13 07:00:45;;;;;;;17.83;6.60;;;;;;;-8.43;55.86;100256.94;5086833;28;20036;-57
2021/01/13 07:03:30;;;;;;;28.38;11.88;;;;;;;-7.95;55.54;100329.84;5074541;28;20470;-54
2021/01/13 07:06:01;;;;;;;26.13;8.75;;;;;;;-7.98;55.68;100314.25;5081291;28;20435;-56
2021/01/13 07:08:28;;;;;;;17.52;6.70;;;;;;;-7.91;55.45;100313.41;5084397;28;20039;-50
2021/01/13 07:11:07;;;;;;;18.65;8.15;;;;;;;-7.88;55.42;100342.00;5089373;28;20028;-57
2021/01/13 07:13:49;;;;;;;29.90;10.25;;;;;;;-7.90;55.70;100322.09;5076912;28;20027;-55
2021/01/13 07:16:15;;;;;;;31.38;12.65;;;;;;;-8.83;55.37;100167.69;5079170;28;20036;-58
2021/01/13 07:18:40;;;;;;;36.08;14.30;;;;;;;-7.84;55.52;100317.75;5086449;28;20027;-53
2021/01/13 07:21:11;;;;;;;28.73;12.25;;;;;;;-7.68;55.87;100333.41;5073057;28;20036;-55
2021/01/13 07:23:40;;;;;;;31.55;11.93;;;;;;;-7.46;54.73;100330.84;5084435;28;20629;-55
2021/01/13 07:26:06;;;;;;;27.55;11.00;;;;;;;-7.47;54.66;100321.31;5079952;28;20032;-53
2021/01/13 07:28:34;;;;;;;30.02;11.13;;;;;;;-7.50;54.08;100324.75;5076011;28;20043;-58
2021/01/13 07:31:01;;;;;;;34.58;11.77;;;;;;;-7.53;54.45;100317.84;5074684;28;20034;-57
2021/01/13 07:33:33;;;;;;;30.67;13.02;;;;;;;-7.36;54.44;100328.25;5060570;28;20480;-59
2021/01/13 07:36:00;;;;;;;31.73;12.80;;;;;;;-7.19;53.96;100311.78;5060320;28;20492;-55
2021/01/13 07:38:30;;;;;;;29.15;11.40;;;;;;;-7.04;53.98;100305.72;5060276;28;20093;-58
2021/01/13 07:41:07;;;;;;;38.95;14.38;;;;;;;-6.82;53.05;100306.53;5057980;28;20427;-60
2021/01/13 07:43:51;;;;;;;21.80;9.15;;;;;;;-6.46;52.22;100313.44;5058497;28;20404;-58
2021/01/13 07:46:31;;;;;;;31.85;13.05;;;;;;;-6.49;53.01;100299.53;5058968;28;20048;-59
2021/01/13 07:49:19;;;;;;;35.75;13.25;;;;;;;-6.44;52.95;100293.44;5061609;28;20063;-57
2021/01/13 07:51:50;;;;;;;27.70;11.95;;;;;;;-6.42;53.01;100310.78;5060108;28;20104;-58
2021/01/13 07:54:33;;;;;;;35.45;13.30;;;;;;;-6.25;52.61;100300.31;5064919;28;20542;-55
2021/01/13 07:57:01;;;;;;;35.72;13.45;;;;;;;-6.25;52.62;100291.63;5087413;28;20408;-60
2021/01/13 07:59:44;;;;;;;35.72;14.05;;;;;;;-6.18;52.40;100297.69;5075984;28;20130;-65
2021/01/13 08:02:37;;;;;;;21.73;8.75;;;;;;;-6.06;52.39;100303.72;5077351;28;20024;-58
2021/01/13 08:05:20;;;;;;;26.15;11.40;;;;;;;-6.07;52.00;100301.09;5080422;28;20109;-65
2021/01/13 08:08:01;;;;;;;36.65;13.77;;;;;;;-6.15;52.20;100293.31;5061767;28;20104;-69
2021/01/13 08:10:29;;;;;;;29.45;13.38;;;;;;;-5.89;51.96;100323.59;5083382;28;20392;-64
2021/01/13 08:13:13;;;;;;;18.55;7.60;;;;;;;-5.72;51.51;100307.84;5074710;28;20461;-67
2021/01/13 08:16:21;;;;;;;34.83;13.88;;;;;;;-5.99;51.40;100306.25;5061215;28;20032;-67
2021/01/13 08:19:17;;;;;;;32.25;14.75;;;;;;;-6.38;51.62;100269.97;5087187;28;20112;-68
2021/01/13 08:21:50;;;;;;;32.15;13.50;;;;;;;-6.96;51.53;100180.75;5063781;28;20056;-66
2021/01/13 08:24:23;;;;;;;30.58;13.10;;;;;;;-6.29;52.03;100303.78;5073292;28;20032;-64
2021/01/13 08:26:49;;;;;;;35.22;13.23;;;;;;;-6.19;52.03;100307.22;5083034;28;20395;-65
2021/01/13 08:29:21;;;;;;;30.50;14.00;;;;;;;-6.17;51.99;100304.63;5081122;28;20033;-67
2021/01/13 08:32:03;;;;;;;30.70;13.95;;;;;;;-6.22;52.28;100307.25;5077450;28;20093;-69
2021/01/13 08:34:41;;;;;;;33.17;14.13;;;;;;;-6.14;52.08;100299.41;5073393;28;20043;-67
2021/01/13 08:37:07;;;;;;;32.22;14.32;;;;;;;-6.00;52.09;100308.00;5082059;28;20326;-65
2021/01/13 08:39:34;;;;;;;38.33;15.48;;;;;;;-6.08;50.84;100307.19;5081344;28;20109;-69
2021/01/13 08:42:24;;;;;;;17.02;6.68;;;;;;;-6.14;51.57;100310.72;5073669;28;20451;-71
2021/01/13 08:44:54;;;;;;;38.13;15.55;;;;;;;-6.51;51.56;100289.97;5061480;28;20131;-67
2021/01/13 08:47:25;;;;;;;32.35;12.80;;;;;;;-6.45;51.80;100305.59;5080591;28;20048;-64
2021/01/13 08:49:51;;;;;;;37.22;15.23;;;;;;;-6.54;52.08;100305.63;5084003;28;20028;-66
2021/01/13 08:52:28;;;;;;;36.58;14.25;;;;;;;-6.53;52.67;100297.78;5073481;28;20044;-70
2021/01/13 08:54:56;;;;;;;34.35;14.35;;;;;;;-6.49;52.79;100311.69;5083919;28;20027;-58
2021/01/13 08:57:24;;;;;;;35.35;14.77;;;;;;;-6.48;52.10;100297.78;5080080;28;20036;-64
2021/01/13 08:59:51;;;;;;;36.45;15.02;;;;;;;-7.26;52.53;100186.03;5075711;28;20033;-63
2021/01/13 09:02:18;;;;;;;32.72;14.43;;;;;;;-6.56;52.79;100304.78;5085626;28;20127;-62
2021/01/13 09:04:50;;;;;;;30.25;12.35;;;;;;;-6.44;51.75;100309.06;5074268;28;20514;-62
2021/01/13 09:07:19;;;;;;;23.83;9.30;;;;;;;-6.52;52.11;100307.34;5079230;28;20059;-63
2021/01/13 09:10:02;;;;;;;34.72;15.65;;;;;;;-7.41;52.58;100184.31;5082902;28;20036;-63
2021/01/13 09:12:47;;;;;;;35.05;14.23;;;;;;;-6.85;52.83;100283.13;5072917;28;20068;-63
2021/01/13 09:15:13;;;;;;;27.23;9.82;;;;;;;-6.83;52.87;100291.78;5080479;28;20550;-62
2021/01/13 09:17:39;;;;;;;36.47;14.02;;;;;;;-6.85;52.80;100280.50;5082120;28;20066;-62
2021/01/13 09:20:06;;;;;;;33.28;12.40;;;;;;;-6.81;53.08;100279.63;5088315;28;20032;-64
2021/01/13 09:22:43;;;;;;;36.20;14.32;;;;;;;-6.72;53.26;100293.53;5072724;28;20067;-61
2021/01/13 09:25:28;;;;;;;31.52;10.10;;;;;;;-6.78;52.63;100248.38;5077461;28;20365;-60
2021/01/13 09:28:00;;;;;;;37.50;14.50;;;;;;;-6.87;52.37;100258.81;5078838;28;20044;-59
2021/01/13 09:30:25;;;;;;;36.65;14.98;;;;;;;-6.80;52.85;100275.31;5072056;28;20446;-61
2021/01/13 09:32:52;;;;;;;31.52;13.50;;;;;;;-6.75;52.41;100272.66;5085418;28;20040;-63
2021/01/13 09:35:23;;;;;;;33.72;12.52;;;;;;;-6.74;52.18;100258.81;5083036;28;20035;-63
2021/01/13 09:37:57;;;;;;;25.40;9.18;;;;;;;-6.69;52.43;100263.09;5078818;28;20064;-63
2021/01/13 09:40:23;;;;;;;41.40;15.90;;;;;;;-6.79;52.44;100264.88;5089456;28;20044;-64
2021/01/13 09:42:58;;;;;;;37.67;13.75;;;;;;;-6.84;52.74;100261.41;5078880;28;20131;-64
2021/01/13 09:45:37;;;;;;;35.38;15.23;;;;;;;-6.85;53.08;100259.69;5081330;28;20036;-69
2021/01/13 09:48:35;;;;;;;26.23;8.57;;;;;;;-6.61;52.37;100275.28;5088635;28;20115;-68
2021/01/13 09:51:03;;;;;;;28.55;12.77;;;;;;;-6.69;52.27;100272.69;5074504;28;20044;-66
2021/01/13 09:53:46;;;;;;;31.15;11.40;;;;;;;-6.87;52.30;100251.00;5081854;28;20431;-64
2021/01/13 09:56:12;;;;;;;39.10;13.68;;;;;;;-6.78;52.56;100263.16;5089285;28;20086;-63
2021/01/13 09:58:49;;;;;;;37.28;14.65;;;;;;;-6.82;52.22;100243.19;5076811;28;20028;-78
2021/01/13 10:01:29;;;;;;;40.92;15.23;;;;;;;-6.80;52.80;100255.31;5073044;28;20031;-62
2021/01/13 10:03:57;;;;;;;39.50;15.30;;;;;;;-7.14;52.78;100198.16;5079389;28;20476;-71
2021/01/13 10:06:28;;;;;;;27.58;11.63;;;;;;;-6.63;52.60;100251.81;5083056;28;20050;-70
2021/01/13 10:08:57;;;;;;;41.95;16.67;;;;;;;-6.55;52.33;100249.19;5077894;28;20398;-70
2021/01/13 10:11:26;;;;;;;32.53;12.75;;;;;;;-6.38;52.43;100241.31;5077159;28;20031;-74
2021/01/13 10:14:01;;;;;;;34.05;14.48;;;;;;;-6.16;51.93;100229.03;5076951;28;20028;-62
2021/01/13 10:16:28;;;;;;;44.97;12.05;;;;;;;-6.07;51.21;100233.31;5078601;28;20044;-56
2021/01/13 10:18:55;;;;;;;36.92;13.85;;;;;;;-6.11;51.33;100226.41;5074405;28;20033;-65
2021/01/13 10:21:21;;;;;;;31.13;12.30;;;;;;;-6.16;51.53;100212.53;5070906;28;20037;-68
2021/01/13 10:23:48;;;;;;;37.85;14.00;;;;;;;-6.11;51.34;100231.63;5076456;28;20053;-63
2021/01/13 10:26:14;;;;;;;36.25;13.10;;;;;;;-6.25;51.29;100198.69;5075391;28;20037;-75
2021/01/13 10:28:40;;;;;;;36.40;14.02;;;;;;;-6.20;51.65;100225.59;5077780;28;20028;-70
2021/01/13 10:31:09;;;;;;;36.45;16.90;;;;;;;-6.31;52.16;100219.53;5076038;28;20448;-69
2021/01/13 10:33:44;;;;;;;41.63;16.83;;;;;;;-6.19;52.20;100234.25;5058365;28;20028;-67
2021/01/13 10:36:33;;;;;;;39.47;17.40;;;;;;;-6.13;52.13;100208.19;5074777;28;20059;-69
2021/01/13 10:39:00;;;;;;;37.20;14.52;;;;;;;-6.18;51.54;100172.59;5075469;28;20057;-74
2021/01/13 10:41:52;;;;;;;33.67;14.38;;;;;;;-6.09;51.56;100186.44;5080923;28;20403;-66
2021/01/13 10:44:28;;;;;;;30.27;12.75;;;;;;;-6.22;51.71;100203.00;5081584;28;20052;-72
2021/01/13 10:47:00;;;;;;;36.85;15.15;;;;;;;-6.31;51.84;100193.50;5086818;28;20102;-67
2021/01/13 10:49:36;;;;;;;27.52;10.20;;;;;;;-6.27;51.60;100197.84;5087846;28;20039;-75
2021/01/13 10:52:12;;;;;;;38.15;15.93;;;;;;;-6.64;52.15;100185.81;5087113;28;20114;-68
2021/01/13 10:54:43;;;;;;;18.70;7.43;;;;;;;-6.55;52.29;100186.69;5079669;28;20036;-70
2021/01/13 10:57:13;;;;;;;40.45;16.05;;;;;;;-6.73;52.42;100180.66;5087697;28;20032;-75
2021/01/13 10:59:40;;;;;;;28.02;10.40;;;;;;;-6.95;52.31;100138.25;5089061;28;20065;-76
2021/01/13 11:02:10;;;;;;;41.58;16.15;;;;;;;-6.71;52.39;100172.84;5084638;28;20220;-74
2021/01/13 11:04:44;;;;;;;31.52;14.82;;;;;;;-6.74;52.28;100157.25;5079901;28;20067;-59
2021/01/13 11:07:15;;;;;;;38.72;15.10;;;;;;;-6.91;52.63;100134.75;5068345;28;20485;-70
2021/01/13 11:09:45;;;;;;;35.40;13.73;;;;;;;-7.57;52.65;100034.34;5067987;28;20040;-84
2021/01/13 11:12:18;;;;;;;43.58;17.15;;;;;;;-6.99;52.41;100139.09;5075102;28;20131;-70
2021/01/13 11:14:49;;;;;;;29.50;10.65;;;;;;;-6.86;52.82;100163.38;5078275;28;20081;-67
2021/01/13 11:17:25;;;;;;;35.53;15.10;;;;;;;-6.95;53.10;100146.91;5074484;28;20028;-55
2021/01/13 11:19:53;;;;;;;28.15;11.88;;;;;;;-6.87;52.93;100141.66;5074866;28;20033;-59
2021/01/13 11:22:44;;;;;;;27.13;10.35;;;;;;;-6.82;52.88;100144.25;5076758;28;20552;-68
2021/01/13 11:25:18;;;;;;;27.23;10.27;;;;;;;-6.82;52.72;100144.25;5063161;28;20040;-64
2021/01/13 11:27:44;;;;;;;38.58;15.75;;;;;;;-6.83;52.95;100132.13;5074618;28;20123;-63
2021/01/13 11:30:13;;;;;;;38.33;15.63;;;;;;;-6.95;53.28;100133.03;5075141;28;20070;-68
2021/01/13 11:32:43;;;;;;;40.55;14.35;;;;;;;-6.95;53.31;100114.81;5078083;28;20115;-63